Time;durP1;ratioP1;P1;durP2;ratioP2;P2;SDS_P1;SDS_P2;PMS_P1;PMS_P2;Temp;Humidity;BMP_temperature;BMP_pressure;BME280_temperature;BME280_humidity;BME280_pressure;Samples;Min_cycle;Max_cycle;Signal;HPM_P1;HPM_P2
2022/07/07 00:02:31;;;;;;;2.85;1.80;;;;;;;;;;4969443;28;20066;-74
2022/07/07 00:05:17;;;;;;;4.47;1.85;;;;;;;;;;4947729;28;20027;-75
2022/07/07 00:08:02;;;;;;;3.33;1.80;;;;;;;;;;4944844;28;20603;-74
2022/07/07 00:10:48;;;;;;;5.13;2.30;;;;;;;;;;4974578;28;20031;-73
2022/07/07 00:13:33;;;;;;;4.72;2.00;;;;;;;;;;4968247;28;20109;-73
2022/07/07 00:16:19;;;;;;;5.05;2.20;;;;;;;;;;4940711;28;20051;-75
2022/07/07 00:19:05;;;;;;;3.60;1.67;;;;;;;;;;4950192;28;20031;-74
2022/07/07 00:21:51;;;;;;;5.00;1.73;;;;;;;;;;4949442;28;20035;-78
2022/07/07 00:24:36;;;;;;;3.75;1.70;;;;;;;;;;4983473;28;20027;-77
2022/07/07 00:27:22;;;;;;;5.90;1.80;;;;;;;;;;4950040;28;20023;-78
2022/07/07 00:30:07;;;;;;;6.20;2.10;;;;;;;;;;4947095;28;20020;-77
2022/07/07 00:32:53;;;;;;;3.58;1.80;;;;;;;;;;4949489;28;20108;-77
2022/07/07 00:35:39;;;;;;;3.15;2.05;;;;;;;;;;4948668;28;20386;-74
2022/07/07 00:38:24;;;;;;;5.95;1.80;;;;;;;;;;4951487;28;20035;-76
2022/07/07 00:41:10;;;;;;;3.65;2.03;;;;;;;;;;4950319;28;20030;-76
2022/07/07 00:43:55;;;;;;;2.60;1.70;;;;;;;;;;4951543;28;20027;-76
2022/07/07 00:46:43;;;;;;;4.78;1.60;;;;;;;;;;4950333;28;20030;-77
2022/07/07 00:49:29;;;;;;;3.90;1.85;;;;;;;;;;4946750;28;20031;-77
2022/07/07 00:52:15;;;;;;;9.18;1.80;;;;;;;;;;4949517;28;20089;-76
2022/07/07 00:55:02;;;;;;;4.10;1.80;;;;;;;;;;4953434;28;20034;-73
2022/07/07 00:57:47;;;;;;;3.92;2.13;;;;;;;;;;4948696;28;20031;-76
2022/07/07 01:00:33;;;;;;;5.40;1.85;;;;;;;;;;4946815;28;20019;-76
2022/07/07 01:03:19;;;;;;;6.28;2.28;;;;;;;;;;4948811;28;20039;-78
2022/07/07 01:06:04;;;;;;;2.67;1.77;;;;;;;;;;4963423;28;20034;-75
2022/07/07 01:08:51;;;;;;;4.07;2.10;;;;;;;;;;4962481;28;20023;-77
2022/07/07 01:11:53;;;;;;;2.97;1.95;;;;;;;;;;4973484;28;20023;-75
2022/07/07 01:14:39;;;;;;;3.33;2.03;;;;;;;;;;4969523;28;20514;-74
2022/07/07 01:17:24;;;;;;;3.63;1.83;;;;;;;;;;4949120;28;20039;-74
2022/07/07 01:20:10;;;;;;;5.32;2.08;;;;;;;;;;4948466;28;20555;-74
2022/07/07 01:22:56;;;;;;;3.15;1.80;;;;;;;;;;4947525;28;20020;-74
2022/07/07 01:25:42;;;;;;;3.65;1.77;;;;;;;;;;4949139;28;20115;-74
2022/07/07 01:28:27;;;;;;;4.22;2.33;;;;;;;;;;4951977;28;20486;-74
2022/07/07 01:31:13;;;;;;;4.50;1.98;;;;;;;;;;4951279;28;20027;-77
2022/07/07 01:33:59;;;;;;;6.38;1.92;;;;;;;;;;4951979;28;20026;-77
2022/07/07 01:36:44;;;;;;;4.07;2.00;;;;;;;;;;4939296;28;20118;-76
2022/07/07 01:39:30;;;;;;;4.90;1.67;;;;;;;;;;4950831;28;20035;-76
2022/07/07 01:42:16;;;;;;;5.00;1.90;;;;;;;;;;4949068;28;20161;-76
2022/07/07 01:45:02;;;;;;;4.07;1.75;;;;;;;;;;4948152;28;20118;-76
2022/07/07 01:47:48;;;;;;;6.60;2.33;;;;;;;;;;4952123;28;20436;-75
2022/07/07 01:50:34;;;;;;;4.85;1.80;;;;;;;;;;4953879;28;20128;-78
2022/07/07 01:53:19;;;;;;;1.98;1.73;;;;;;;;;;4970991;28;20032;-74
2022/07/07 01:56:05;;;;;;;4.20;1.90;;;;;;;;;;4959303;28;20494;-73
2022/07/07 01:58:51;;;;;;;6.57;2.00;;;;;;;;;;4946932;28;20016;-73
2022/07/07 02:01:36;;;;;;;9.27;2.35;;;;;;;;;;4949570;28;20031;-74
2022/07/07 02:04:22;;;;;;;8.50;2.30;;;;;;;;;;4950622;28;20031;-74
2022/07/07 02:07:07;;;;;;;7.45;2.97;;;;;;;;;;4943184;28;20027;-75
2022/07/07 02:09:53;;;;;;;5.07;1.73;;;;;;;;;;4982784;28;20060;-77
2022/07/07 02:12:38;;;;;;;3.28;1.83;;;;;;;;;;4951569;28;20105;-77
2022/07/07 02:15:24;;;;;;;6.22;2.22;;;;;;;;;;4945386;28;20077;-78
2022/07/07 02:18:10;;;;;;;4.28;2.00;;;;;;;;;;4961788;28;20163;-78
2022/07/07 02:20:56;;;;;;;4.18;2.00;;;;;;;;;;4971889;28;20023;-79
2022/07/07 02:23:45;;;;;;;4.93;2.25;;;;;;;;;;4976840;28;20023;-77
2022/07/07 02:26:34;;;;;;;6.53;2.03;;;;;;;;;;4998161;28;20028;-74
2022/07/07 02:29:19;;;;;;;3.93;2.20;;;;;;;;;;4942101;28;20023;-75
2022/07/07 02:32:05;;;;;;;4.10;2.47;;;;;;;;;;4952401;28;20067;-75
2022/07/07 02:34:50;;;;;;;5.53;2.13;;;;;;;;;;4955878;28;20023;-74
2022/07/07 02:37:37;;;;;;;4.32;1.75;;;;;;;;;;4941894;28;20174;-74
2022/07/07 02:40:23;;;;;;;3.60;2.03;;;;;;;;;;4952304;28;20031;-74
2022/07/07 02:43:12;;;;;;;4.50;1.85;;;;;;;;;;4949668;28;20030;-74
2022/07/07 02:45:58;;;;;;;3.00;1.77;;;;;;;;;;4950639;28;20031;-75
2022/07/07 02:48:44;;;;;;;5.07;2.05;;;;;;;;;;4949959;28;20031;-75
2022/07/07 02:51:29;;;;;;;5.68;1.95;;;;;;;;;;4949698;28;20493;-75
2022/07/07 02:54:15;;;;;;;5.38;2.17;;;;;;;;;;4948600;28;20514;-74
2022/07/07 02:57:01;;;;;;;3.83;1.80;;;;;;;;;;4959224;28;20042;-75
2022/07/07 02:59:46;;;;;;;3.20;2.00;;;;;;;;;;4948318;28;20613;-75
2022/07/07 03:02:32;;;;;;;7.25;1.95;;;;;;;;;;4953195;28;20035;-78
2022/07/07 03:05:18;;;;;;;5.47;2.00;;;;;;;;;;4996874;28;20128;-76
2022/07/07 03:08:04;;;;;;;6.25;1.98;;;;;;;;;;4946084;28;20059;-76
2022/07/07 03:10:49;;;;;;;3.28;1.80;;;;;;;;;;4954894;28;20062;-76
2022/07/07 03:13:35;;;;;;;5.05;2.30;;;;;;;;;;4951346;28;20120;-76
2022/07/07 03:16:21;;;;;;;4.50;2.15;;;;;;;;;;4947995;28;20478;-77
2022/07/07 03:19:06;;;;;;;3.63;1.98;;;;;;;;;;4949297;28;20077;-76
2022/07/07 03:21:52;;;;;;;3.38;2.03;;;;;;;;;;4954139;28;20031;-77
2022/07/07 03:24:37;;;;;;;4.97;1.95;;;;;;;;;;4949191;28;20031;-77
2022/07/07 03:27:23;;;;;;;2.78;1.88;;;;;;;;;;4951210;28;20036;-75
2022/07/07 03:30:10;;;;;;;4.25;2.00;;;;;;;;;;4949765;28;20085;-75
2022/07/07 03:32:55;;;;;;;3.08;1.95;;;;;;;;;;4955147;28;20374;-74
2022/07/07 03:35:42;;;;;;;4.30;1.85;;;;;;;;;;4948559;28;20019;-75
2022/07/07 03:38:27;;;;;;;5.20;2.38;;;;;;;;;;4952563;28;20398;-75
2022/07/07 03:41:13;;;;;;;4.72;2.00;;;;;;;;;;4944355;28;20019;-75
2022/07/07 03:43:58;;;;;;;4.80;2.03;;;;;;;;;;4955261;28;20038;-75
2022/07/07 03:46:44;;;;;;;2.92;1.95;;;;;;;;;;4949402;28;20020;-74
2022/07/07 03:49:30;;;;;;;5.50;2.05;;;;;;;;;;4945192;28;20023;-74
2022/07/07 03:52:16;;;;;;;4.97;2.50;;;;;;;;;;4946835;28;20504;-75
2022/07/07 03:55:02;;;;;;;4.47;2.00;;;;;;;;;;4953240;28;20506;-75
2022/07/07 03:57:47;;;;;;;4.43;2.08;;;;;;;;;;4938333;28;20084;-76
2022/07/07 04:00:33;;;;;;;10.60;2.45;;;;;;;;;;4978384;28;20019;-73
2022/07/07 04:03:18;;;;;;;3.65;2.00;;;;;;;;;;4947976;28;20114;-75
2022/07/07 04:06:04;;;;;;;3.75;1.70;;;;;;;;;;4949945;28;20062;-74
2022/07/07 04:08:50;;;;;;;2.35;1.80;;;;;;;;;;4949261;28;20031;-74
2022/07/07 04:11:36;;;;;;;3.33;2.08;;;;;;;;;;4948164;28;20038;-76
2022/07/07 04:14:21;;;;;;;3.45;2.13;;;;;;;;;;4946934;28;20114;-73
2022/07/07 04:17:07;;;;;;;2.67;1.90;;;;;;;;;;4980188;28;20507;-76
2022/07/07 04:19:52;;;;;;;4.20;2.15;;;;;;;;;;4948605;28;20023;-77
2022/07/07 04:22:38;;;;;;;5.20;2.20;;;;;;;;;;4949438;28;20035;-76
2022/07/07 04:25:23;;;;;;;7.88;2.08;;;;;;;;;;4947672;28;20455;-78
2022/07/07 04:28:09;;;;;;;3.72;2.35;;;;;;;;;;4949106;28;20058;-76
2022/07/07 04:30:55;;;;;;;4.40;2.00;;;;;;;;;;4938434;28;20233;-76
2022/07/07 04:33:41;;;;;;;2.45;1.65;;;;;;;;;;4953580;28;20049;-77
2022/07/07 04:36:26;;;;;;;4.75;2.05;;;;;;;;;;4948884;28;20498;-74
2022/07/07 04:39:12;;;;;;;3.72;2.05;;;;;;;;;;4946571;28;20039;-74
2022/07/07 04:41:57;;;;;;;13.30;2.42;;;;;;;;;;4954003;28;20027;-74
2022/07/07 04:44:43;;;;;;;5.72;2.28;;;;;;;;;;4948919;28;20102;-74
2022/07/07 04:47:28;;;;;;;4.88;2.10;;;;;;;;;;4948621;28;20081;-74
2022/07/07 04:50:14;;;;;;;2.30;1.73;;;;;;;;;;4946718;28;20027;-75
2022/07/07 04:53:00;;;;;;;4.00;1.80;;;;;;;;;;4949399;28;20027;-73
2022/07/07 04:55:45;;;;;;;4.60;1.70;;;;;;;;;;4961323;28;20028;-76
2022/07/07 04:58:31;;;;;;;4.18;2.40;;;;;;;;;;4947881;28;20023;-77
2022/07/07 05:01:17;;;;;;;3.17;1.85;;;;;;;;;;4949898;28;20024;-76
2022/07/07 05:04:02;;;;;;;4.22;2.00;;;;;;;;;;4948037;28;20487;-77
2022/07/07 05:06:48;;;;;;;5.43;1.90;;;;;;;;;;4948211;28;20087;-77
2022/07/07 05:09:34;;;;;;;2.08;1.63;;;;;;;;;;4947740;28;20062;-76
2022/07/07 05:12:20;;;;;;;3.40;1.80;;;;;;;;;;4947689;28;20033;-72
2022/07/07 05:15:06;;;;;;;5.00;1.80;;;;;;;;;;4945942;28;20122;-74
2022/07/07 05:17:51;;;;;;;4.25;1.73;;;;;;;;;;4960554;28;20040;-76
2022/07/07 05:20:37;;;;;;;3.35;1.77;;;;;;;;;;4949770;28;20024;-76
2022/07/07 05:23:25;;;;;;;3.03;1.77;;;;;;;;;;4964216;28;20056;-77
2022/07/07 05:26:10;;;;;;;5.70;1.92;;;;;;;;;;4966301;28;20031;-78
2022/07/07 05:28:56;;;;;;;2.95;1.77;;;;;;;;;;4982123;28;20077;-73
2022/07/07 05:31:42;;;;;;;3.05;1.67;;;;;;;;;;4963913;28;20027;-76
2022/07/07 05:34:28;;;;;;;7.35;2.22;;;;;;;;;;4961886;28;20110;-74
2022/07/07 05:37:14;;;;;;;4.03;1.85;;;;;;;;;;4964689;28;20037;-72
2022/07/07 05:39:59;;;;;;;6.75;2.25;;;;;;;;;;4950379;28;20024;-74
2022/07/07 05:42:45;;;;;;;6.75;1.98;;;;;;;;;;4953907;28;20030;-73
2022/07/07 05:45:31;;;;;;;3.70;1.95;;;;;;;;;;4949518;28;20458;-73
2022/07/07 05:48:16;;;;;;;2.20;1.65;;;;;;;;;;4965428;28;20077;-71
2022/07/07 05:51:02;;;;;;;7.03;1.73;;;;;;;;;;4942978;28;20030;-76
2022/07/07 05:53:47;;;;;;;6.13;1.77;;;;;;;;;;4945871;28;20046;-77
2022/07/07 05:56:33;;;;;;;4.28;1.70;;;;;;;;;;4952833;28;20035;-77
2022/07/07 05:59:19;;;;;;;3.95;1.65;;;;;;;;;;4950047;28;20027;-81
2022/07/07 06:02:05;;;;;;;5.65;1.80;;;;;;;;;;4944388;28;20037;-80
2022/07/07 06:04:50;;;;;;;5.38;1.63;;;;;;;;;;4966407;28;20034;-79
2022/07/07 06:07:36;;;;;;;5.25;2.65;;;;;;;;;;4965428;28;20034;-77
2022/07/07 06:10:22;;;;;;;2.80;1.80;;;;;;;;;;4965812;28;20066;-72
2022/07/07 06:13:07;;;;;;;4.38;2.15;;;;;;;;;;4955800;28;20038;-73
2022/07/07 06:15:53;;;;;;;4.18;1.80;;;;;;;;;;4960870;28;20093;-73
2022/07/07 06:18:38;;;;;;;2.55;1.45;;;;;;;;;;4973201;28;20351;-72
2022/07/07 06:21:24;;;;;;;4.55;1.85;;;;;;;;;;4963199;28;20013;-73
2022/07/07 06:24:10;;;;;;;3.92;1.70;;;;;;;;;;4975516;28;20035;-75
2022/07/07 06:26:56;;;;;;;3.22;1.40;;;;;;;;;;4950716;28;20038;-74
2022/07/07 06:29:41;;;;;;;4.28;2.03;;;;;;;;;;4982624;28;20029;-76
2022/07/07 06:32:27;;;;;;;4.05;1.60;;;;;;;;;;4945367;28;20466;-76
2022/07/07 06:35:13;;;;;;;5.45;2.00;;;;;;;;;;4997189;28;20407;-74
2022/07/07 06:37:58;;;;;;;3.35;1.50;;;;;;;;;;4940684;28;20040;-76
2022/07/07 06:40:44;;;;;;;5.00;1.60;;;;;;;;;;4948869;28;20437;-76
2022/07/07 06:43:30;;;;;;;2.53;1.55;;;;;;;;;;4944876;28;20070;-74
2022/07/07 06:46:15;;;;;;;4.03;1.95;;;;;;;;;;4951152;28;20039;-81
2022/07/07 06:49:01;;;;;;;5.05;2.28;;;;;;;;;;4948597;28;20225;-83
2022/07/07 06:51:46;;;;;;;2.75;1.50;;;;;;;;;;4947669;28;20038;-83
2022/07/07 06:54:32;;;;;;;5.45;1.80;;;;;;;;;;4947590;28;20020;-80
2022/07/07 06:57:18;;;;;;;4.13;1.73;;;;;;;;;;4954372;28;20042;-85
2022/07/07 07:00:04;;;;;;;6.57;1.80;;;;;;;;;;4946713;28;20023;-80
2022/07/07 07:02:49;;;;;;;5.80;2.33;;;;;;;;;;4952384;28;20496;-76
2022/07/07 07:05:35;;;;;;;5.55;1.98;;;;;;;;;;4948107;28;20127;-74
2022/07/07 07:08:20;;;;;;;5.70;1.67;;;;;;;;;;4951318;28;20039;-76
2022/07/07 07:11:06;;;;;;;5.40;2.10;;;;;;;;;;4947025;28;20491;-76
2022/07/07 07:13:52;;;;;;;4.93;2.22;;;;;;;;;;4949813;28;20089;-74
2022/07/07 07:16:37;;;;;;;9.55;2.53;;;;;;;;;;4969415;28;20042;-73
2022/07/07 07:19:23;;;;;;;6.22;1.95;;;;;;;;;;4947091;28;20532;-76
2022/07/07 07:22:08;;;;;;;6.70;2.08;;;;;;;;;;4947219;28;20069;-72
2022/07/07 07:24:54;;;;;;;5.90;2.35;;;;;;;;;;4973052;28;20023;-78
2022/07/07 07:27:40;;;;;;;3.80;1.95;;;;;;;;;;4951637;28;20135;-77
2022/07/07 07:30:25;;;;;;;4.55;1.67;;;;;;;;;;4950911;28;20036;-76
2022/07/07 07:33:11;;;;;;;3.20;1.90;;;;;;;;;;4949535;28;20130;-78
2022/07/07 07:35:57;;;;;;;4.13;1.95;;;;;;;;;;4951157;28;20367;-77
2022/07/07 07:38:44;;;;;;;4.22;1.67;;;;;;;;;;4975075;28;20023;-73
2022/07/07 07:41:30;;;;;;;5.25;2.20;;;;;;;;;;4947927;28;20028;-76
2022/07/07 07:47:20;;;;;;;4.38;1.60;;;;;;;;;;4944611;28;20102;-73
2022/07/07 07:50:06;;;;;;;5.40;1.88;;;;;;;;;;4965345;28;20042;-75
2022/07/07 07:52:52;;;;;;;4.40;1.60;;;;;;;;;;4968103;28;20022;-75
2022/07/07 07:55:38;;;;;;;3.58;1.83;;;;;;;;;;4952474;28;20046;-75
2022/07/07 07:58:24;;;;;;;2.80;1.80;;;;;;;;;;4941584;28;20027;-69
2022/07/07 08:01:09;;;;;;;4.75;2.17;;;;;;;;;;4967208;28;20019;-76
2022/07/07 08:03:55;;;;;;;4.32;2.03;;;;;;;;;;4947558;28;20058;-82
2022/07/07 08:06:41;;;;;;;3.15;1.80;;;;;;;;;;4947424;28;20027;-75
2022/07/07 08:09:27;;;;;;;7.30;2.15;;;;;;;;;;4949425;28;20027;-77
2022/07/07 08:12:12;;;;;;;4.65;2.00;;;;;;;;;;4948531;28;20030;-83
2022/07/07 08:14:58;;;;;;;10.77;2.83;;;;;;;;;;4946321;28;20117;-73
2022/07/07 08:17:44;;;;;;;2.42;1.85;;;;;;;;;;4950032;28;20195;-78
2022/07/07 08:20:30;;;;;;;4.95;2.38;;;;;;;;;;4952450;28;20066;-77
2022/07/07 08:23:15;;;;;;;5.15;2.00;;;;;;;;;;4943394;28;20093;-77
2022/07/07 08:26:01;;;;;;;4.72;2.38;;;;;;;;;;4954990;28;20406;-74
2022/07/07 08:28:47;;;;;;;4.28;2.13;;;;;;;;;;4947352;28;20065;-71
2022/07/07 08:31:32;;;;;;;5.95;2.17;;;;;;;;;;4947146;28;20288;-75
2022/07/07 08:34:18;;;;;;;5.97;2.40;;;;;;;;;;4949128;28;20457;-74
2022/07/07 08:37:04;;;;;;;4.40;1.90;;;;;;;;;;4948767;28;20482;-72
2022/07/07 08:39:50;;;;;;;6.00;2.25;;;;;;;;;;4951574;28;20019;-77
2022/07/07 08:42:36;;;;;;;3.95;2.08;;;;;;;;;;4947894;28;20473;-75
2022/07/07 08:45:21;;;;;;;4.40;2.00;;;;;;;;;;4947791;28;20465;-76
2022/07/07 08:48:07;;;;;;;4.95;1.92;;;;;;;;;;4948828;28;20053;-70
2022/07/07 08:50:53;;;;;;;7.82;2.65;;;;;;;;;;4969679;28;20033;-76
2022/07/07 08:53:38;;;;;;;4.88;2.42;;;;;;;;;;4947269;28;20031;-84
2022/07/07 08:56:24;;;;;;;8.55;2.42;;;;;;;;;;4942256;28;20035;-75
2022/07/07 08:59:11;;;;;;;5.63;2.80;;;;;;;;;;4951270;28;20015;-72
2022/07/07 09:01:58;;;;;;;6.63;3.33;;;;;;;;;;4947095;28;20035;-73
2022/07/07 09:04:43;;;;;;;4.03;2.75;;;;;;;;;;4949563;28;20463;-79
2022/07/07 09:07:45;;;;;;;4.45;2.60;;;;;;;;;;4945647;28;20024;-74
2022/07/07 09:10:32;;;;;;;6.63;2.85;;;;;;;;;;4946930;28;20027;-80
2022/07/07 09:13:25;;;;;;;6.90;2.83;;;;;;;;;;4945203;28;20533;-69
2022/07/07 09:16:15;;;;;;;4.63;1.92;;;;;;;;;;4947111;28;20134;-69
2022/07/07 09:19:00;;;;;;;7.00;2.30;;;;;;;;;;4947497;28;20023;-70
2022/07/07 09:21:46;;;;;;;4.28;2.10;;;;;;;;;;4945566;28;20093;-68
2022/07/07 09:24:32;;;;;;;6.50;2.40;;;;;;;;;;4945107;28;20031;-67
2022/07/07 09:27:17;;;;;;;5.00;2.53;;;;;;;;;;4947921;28;20031;-70
2022/07/07 09:30:03;;;;;;;4.53;2.70;;;;;;;;;;4947848;28;20359;-77
2022/07/07 09:32:49;;;;;;;3.47;2.10;;;;;;;;;;4951053;28;20073;-76
2022/07/07 09:38:41;;;;;;;3.58;1.67;;;;;;;;;;4948207;28;20034;-76
2022/07/07 09:41:26;;;;;;;4.30;1.80;;;;;;;;;;4995912;28;20025;-77
2022/07/07 09:44:12;;;;;;;2.40;1.73;;;;;;;;;;4937028;28;20038;-76
2022/07/07 09:47:10;;;;;;;3.30;2.00;;;;;;;;;;4946352;28;20034;-75
2022/07/07 09:50:06;;;;;;;4.13;1.70;;;;;;;;;;4948149;28;20078;-82
2022/07/07 09:52:51;;;;;;;2.88;1.77;;;;;;;;;;4958033;28;20026;-84
2022/07/07 09:55:37;;;;;;;4.00;1.55;;;;;;;;;;4946422;28;20031;-81
2022/07/07 09:58:23;;;;;;;3.50;1.80;;;;;;;;;;4947007;28;20384;-79
2022/07/07 10:01:08;;;;;;;5.18;2.03;;;;;;;;;;4944067;28;20027;-83
2022/07/07 10:04:02;;;;;;;5.07;2.00;;;;;;;;;;4949611;28;20498;-77
2022/07/07 10:06:47;;;;;;;5.45;1.88;;;;;;;;;;4948629;28;20024;-76
2022/07/07 10:09:33;;;;;;;2.45;1.98;;;;;;;;;;4946859;28;20031;-77
2022/07/07 10:12:23;;;;;;;2.17;1.70;;;;;;;;;;4952190;28;20093;-77
2022/07/07 10:15:11;;;;;;;3.10;1.90;;;;;;;;;;4949361;28;20019;-69
2022/07/07 10:17:56;;;;;;;6.70;3.05;;;;;;;;;;4949756;28;20035;-65
2022/07/07 10:20:44;;;;;;;7.15;2.78;;;;;;;;;;4946828;28;20031;-60
2022/07/07 10:23:32;;;;;;;7.38;3.75;;;;;;;;;;4949486;28;20030;-73
2022/07/07 10:26:33;;;;;;;5.18;2.05;;;;;;;;;;4945860;28;20418;-66
2022/07/07 10:29:38;;;;;;;3.85;2.15;;;;;;;;;;4942360;28;20390;-66
2022/07/07 10:32:37;;;;;;;5.82;2.65;;;;;;;;;;4951870;28;20089;-65
2022/07/07 10:35:23;;;;;;;5.30;2.20;;;;;;;;;;4948869;28;20023;-63
2022/07/07 10:38:09;;;;;;;4.47;2.25;;;;;;;;;;4946012;28;20298;-66
2022/07/07 10:40:55;;;;;;;3.90;1.75;;;;;;;;;;4949538;28;20020;-63
2022/07/07 10:43:46;;;;;;;5.13;2.20;;;;;;;;;;4950094;28;20031;-65
2022/07/07 10:46:34;;;;;;;3.97;2.42;;;;;;;;;;4952036;28;20490;-64
2022/07/07 10:49:19;;;;;;;4.63;1.95;;;;;;;;;;4956071;28;20124;-64
2022/07/07 10:52:25;;;;;;;2.90;2.00;;;;;;;;;;4949557;28;20457;-65
2022/07/07 10:55:10;;;;;;;3.58;1.90;;;;;;;;;;4949644;28;20033;-64
2022/07/07 10:57:56;;;;;;;3.55;1.73;;;;;;;;;;4950150;28;20097;-66
2022/07/07 11:00:42;;;;;;;3.72;1.98;;;;;;;;;;4945582;28;20516;-68
2022/07/07 11:03:27;;;;;;;2.78;1.80;;;;;;;;;;4945657;28;20093;-65
2022/07/07 11:06:13;;;;;;;10.00;2.60;;;;;;;;;;4950260;28;20027;-62
2022/07/07 11:09:00;;;;;;;5.45;2.70;;;;;;;;;;4944069;28;20035;-62
2022/07/07 11:11:45;;;;;;;5.18;2.40;;;;;;;;;;4950115;28;20060;-63
2022/07/07 11:14:31;;;;;;;3.15;2.13;;;;;;;;;;4948085;28;20030;-65
2022/07/07 11:17:23;;;;;;;4.53;1.60;;;;;;;;;;4946729;28;20455;-63
2022/07/07 11:20:09;;;;;;;7.30;2.58;;;;;;;;;;4945218;28;20019;-71
2022/07/07 11:23:04;;;;;;;5.25;1.70;;;;;;;;;;4950874;28;20836;-65
2022/07/07 11:25:55;;;;;;;3.78;1.83;;;;;;;;;;4948968;28;20529;-64
2022/07/07 11:28:41;;;;;;;2.53;1.63;;;;;;;;;;4953170;28;20046;-63
2022/07/07 11:31:27;;;;;;;2.88;1.58;;;;;;;;;;4958762;28;20039;-65
2022/07/07 11:34:13;;;;;;;2.70;1.42;;;;;;;;;;4944526;28;20039;-66
2022/07/07 11:37:15;;;;;;;2.55;1.92;;;;;;;;;;4955871;28;20035;-62
2022/07/07 11:40:00;;;;;;;3.13;1.60;;;;;;;;;;4963635;28;20019;-60
2022/07/07 11:42:46;;;;;;;3.95;1.95;;;;;;;;;;4955432;28;20106;-66
2022/07/07 11:45:32;;;;;;;4.05;1.73;;;;;;;;;;4962721;28;20110;-65
2022/07/07 11:48:18;;;;;;;3.47;1.80;;;;;;;;;;4945832;28;20120;-65
2022/07/07 11:51:04;;;;;;;6.28;1.83;;;;;;;;;;4959785;28;20034;-63
2022/07/07 11:53:57;;;;;;;3.38;1.77;;;;;;;;;;4951283;28;20065;-64
2022/07/07 11:56:43;;;;;;;2.45;1.70;;;;;;;;;;4950428;28;20047;-69
2022/07/07 11:59:28;;;;;;;6.00;2.30;;;;;;;;;;4954365;28;20023;-63
2022/07/07 12:02:20;;;;;;;3.00;1.75;;;;;;;;;;5012996;28;20115;-61
2022/07/07 12:05:06;;;;;;;4.30;1.70;;;;;;;;;;4948530;28;20110;-63
2022/07/07 12:07:56;;;;;;;5.00;2.20;;;;;;;;;;4948570;28;20035;-62
2022/07/07 12:10:52;;;;;;;3.28;1.60;;;;;;;;;;4981564;28;20054;-63
2022/07/07 12:13:37;;;;;;;3.78;1.83;;;;;;;;;;4945064;28;20100;-62
2022/07/07 12:16:23;;;;;;;3.38;1.60;;;;;;;;;;4949458;28;20035;-62
2022/07/07 12:19:09;;;;;;;5.68;2.25;;;;;;;;;;4945352;28;20023;-61
2022/07/07 12:21:54;;;;;;;5.63;1.90;;;;;;;;;;4950796;28;20482;-63
2022/07/07 12:24:41;;;;;;;3.00;1.75;;;;;;;;;;5018201;28;20527;-61
2022/07/07 12:27:26;;;;;;;3.22;1.90;;;;;;;;;;4948651;28;20019;-61
2022/07/07 12:30:12;;;;;;;6.32;1.90;;;;;;;;;;4967581;28;20431;-60
2022/07/07 12:32:58;;;;;;;3.92;1.83;;;;;;;;;;4946289;28;20039;-61
2022/07/07 12:35:44;;;;;;;5.38;2.63;;;;;;;;;;4976021;28;20022;-60
2022/07/07 12:38:37;;;;;;;6.97;2.22;;;;;;;;;;4946854;28;20797;-64
2022/07/07 12:41:27;;;;;;;5.85;2.63;;;;;;;;;;4945686;28;20106;-61
2022/07/07 12:44:14;;;;;;;3.72;1.77;;;;;;;;;;4946267;28;20027;-61
2022/07/07 12:46:59;;;;;;;6.55;2.65;;;;;;;;;;4955378;28;20098;-62
2022/07/07 12:49:52;;;;;;;4.32;2.10;;;;;;;;;;4950446;28;20023;-61
2022/07/07 12:52:37;;;;;;;5.35;2.17;;;;;;;;;;4950740;28;20026;-60
2022/07/07 12:55:30;;;;;;;5.95;1.70;;;;;;;;;;4944490;28;20119;-61
2022/07/07 12:58:16;;;;;;;4.72;1.90;;;;;;;;;;4947590;28;20233;-63
2022/07/07 13:01:04;;;;;;;5.47;2.42;;;;;;;;;;4944387;28;20029;-65
2022/07/07 13:03:52;;;;;;;7.10;2.40;;;;;;;;;;4950129;28;20035;-63
2022/07/07 13:06:37;;;;;;;3.60;2.03;;;;;;;;;;4956822;28;20023;-63
2022/07/07 13:09:23;;;;;;;4.20;2.40;;;;;;;;;;4943269;28;20117;-66
2022/07/07 13:12:10;;;;;;;4.72;2.03;;;;;;;;;;4950516;28;20360;-70
2022/07/07 13:14:55;;;;;;;3.83;1.73;;;;;;;;;;4943283;28;20058;-61
2022/07/07 13:17:43;;;;;;;4.47;1.92;;;;;;;;;;4943721;28;20032;-62
2022/07/07 13:20:29;;;;;;;5.43;2.03;;;;;;;;;;4959732;28;20023;-62
2022/07/07 13:23:15;;;;;;;6.13;1.70;;;;;;;;;;4939933;28;20080;-61
2022/07/07 13:26:02;;;;;;;3.22;1.88;;;;;;;;;;4944065;28;20108;-61
2022/07/07 13:28:48;;;;;;;5.13;2.03;;;;;;;;;;4947313;28;20070;-61
2022/07/07 13:31:38;;;;;;;2.42;1.98;;;;;;;;;;4944084;28;20031;-66
2022/07/07 13:34:23;;;;;;;4.90;1.90;;;;;;;;;;4946165;28;20042;-63
2022/07/07 13:37:09;;;;;;;3.45;1.85;;;;;;;;;;4949635;28;20084;-64
2022/07/07 13:39:54;;;;;;;9.93;2.20;;;;;;;;;;4943350;28;20020;-65
2022/07/07 13:42:40;;;;;;;5.25;2.30;;;;;;;;;;4946740;28;20433;-66
2022/07/07 13:45:25;;;;;;;3.33;2.15;;;;;;;;;;4899539;28;1279797;-65
2022/07/07 13:48:11;;;;;;;3.25;1.90;;;;;;;;;;4943367;28;21438;-63
2022/07/07 13:50:56;;;;;;;8.23;2.08;;;;;;;;;;4955576;28;20110;-65
2022/07/07 13:53:43;;;;;;;3.85;1.90;;;;;;;;;;4944523;28;20031;-64
2022/07/07 13:56:29;;;;;;;2.95;1.80;;;;;;;;;;4948069;28;20043;-64
2022/07/07 13:59:14;;;;;;;6.43;2.17;;;;;;;;;;4948281;28;20028;-63
2022/07/07 14:02:00;;;;;;;8.38;2.55;;;;;;;;;;4950818;28;20105;-61
2022/07/07 14:04:46;;;;;;;3.55;1.98;;;;;;;;;;4948064;28;20019;-68
2022/07/07 14:07:32;;;;;;;3.17;1.70;;;;;;;;;;4950594;28;20498;-62
2022/07/07 14:10:19;;;;;;;6.03;1.98;;;;;;;;;;4949103;28;20498;-63
2022/07/07 14:13:04;;;;;;;6.05;1.50;;;;;;;;;;4947573;28;20118;-72
2022/07/07 14:15:50;;;;;;;5.47;2.13;;;;;;;;;;4948984;28;20027;-74
2022/07/07 14:18:36;;;;;;;2.33;1.30;;;;;;;;;;4942958;28;20458;-71
2022/07/07 14:21:23;;;;;;;3.63;1.25;;;;;;;;;;4952683;28;20023;-71
2022/07/07 14:24:08;;;;;;;4.40;1.30;;;;;;;;;;4949071;28;20031;-72
2022/07/07 14:26:54;;;;;;;5.63;1.30;;;;;;;;;;4972025;28;20585;-71
2022/07/07 14:29:40;;;;;;;2.33;1.30;;;;;;;;;;4960547;28;20035;-72
2022/07/07 14:32:26;;;;;;;5.07;1.30;;;;;;;;;;4954018;28;20035;-77
2022/07/07 14:35:12;;;;;;;2.03;0.93;;;;;;;;;;4949485;28;20490;-73
2022/07/07 14:37:57;;;;;;;3.05;1.00;;;;;;;;;;4958491;28;20035;-70
2022/07/07 14:40:43;;;;;;;2.70;1.50;;;;;;;;;;4942099;28;20022;-75
2022/07/07 14:43:28;;;;;;;1.88;1.30;;;;;;;;;;4953419;28;20106;-74
2022/07/07 14:46:14;;;;;;;8.30;2.05;;;;;;;;;;4948104;28;20066;-70
2022/07/07 14:49:00;;;;;;;2.78;1.23;;;;;;;;;;4947940;28;20548;-72
2022/07/07 14:51:45;;;;;;;1.42;1.17;;;;;;;;;;4948246;28;20023;-70
2022/07/07 14:54:31;;;;;;;2.75;1.30;;;;;;;;;;4958070;28;20027;-70
2022/07/07 14:57:17;;;;;;;1.50;1.00;;;;;;;;;;4956649;28;20328;-71
2022/07/07 15:00:03;;;;;;;2.65;1.27;;;;;;;;;;4947425;28;20019;-81
2022/07/07 15:02:49;;;;;;;3.60;1.08;;;;;;;;;;4949180;28;20027;-73
2022/07/07 15:05:34;;;;;;;4.72;1.67;;;;;;;;;;4964811;28;20017;-74
2022/07/07 15:08:20;;;;;;;2.22;1.10;;;;;;;;;;4956268;28;20482;-72
2022/07/07 15:11:05;;;;;;;2.40;1.33;;;;;;;;;;4946365;28;20122;-75
2022/07/07 15:13:51;;;;;;;1.35;1.25;;;;;;;;;;4950672;28;20035;-67
2022/07/07 15:16:37;;;;;;;1.48;1.23;;;;;;;;;;4946689;28;20041;-64
2022/07/07 15:19:23;;;;;;;1.55;1.20;;;;;;;;;;4945430;28;20028;-59
2022/07/07 15:22:09;;;;;;;1.83;1.00;;;;;;;;;;4960569;28;20257;-70
2022/07/07 15:24:54;;;;;;;2.80;1.10;;;;;;;;;;4955827;28;20414;-65
2022/07/07 15:27:40;;;;;;;2.47;1.20;;;;;;;;;;4944781;28;20258;-66
2022/07/07 15:30:27;;;;;;;1.45;1.15;;;;;;;;;;4950184;28;20081;-66
2022/07/07 15:33:13;;;;;;;5.40;1.80;;;;;;;;;;4947517;28;20028;-62
2022/07/07 15:35:59;;;;;;;7.28;2.33;;;;;;;;;;4946386;28;20379;-66
2022/07/07 15:38:44;;;;;;;3.53;1.20;;;;;;;;;;4957818;28;20096;-63
2022/07/07 15:41:31;;;;;;;1.33;1.23;;;;;;;;;;4949276;28;20043;-64
2022/07/07 15:44:17;;;;;;;2.75;1.58;;;;;;;;;;4950163;28;20035;-64
2022/07/07 15:47:02;;;;;;;2.40;1.10;;;;;;;;;;4951633;28;20019;-64
2022/07/07 15:49:48;;;;;;;3.20;1.33;;;;;;;;;;4943928;28;20267;-65
2022/07/07 15:52:34;;;;;;;2.55;1.17;;;;;;;;;;4956336;28;20073;-66
2022/07/07 15:55:20;;;;;;;3.38;1.30;;;;;;;;;;4953955;28;20073;-64
2022/07/07 15:58:06;;;;;;;3.70;1.20;;;;;;;;;;4950152;28;20120;-71
2022/07/07 16:00:51;;;;;;;1.27;1.10;;;;;;;;;;4944766;28;20149;-70
2022/07/07 16:06:42;;;;;;;1.38;1.10;;;;;;;;;;4949853;28;20504;-71
2022/07/07 16:09:28;;;;;;;1.65;1.27;;;;;;;;;;4950687;28;20042;-71
2022/07/07 16:12:14;;;;;;;3.97;1.63;;;;;;;;;;4949885;28;20122;-72
2022/07/07 16:14:59;;;;;;;1.77;1.15;;;;;;;;;;4948062;28;20027;-76
2022/07/07 16:17:45;;;;;;;4.70;1.17;;;;;;;;;;4947601;28;20085;-78
2022/07/07 16:20:30;;;;;;;1.38;0.90;;;;;;;;;;4948302;28;20114;-79
2022/07/07 16:23:16;;;;;;;2.03;1.10;;;;;;;;;;4948727;28;20036;-78
2022/07/07 16:26:01;;;;;;;3.55;1.60;;;;;;;;;;4948852;28;20036;-78
2022/07/07 16:28:47;;;;;;;1.83;1.17;;;;;;;;;;4950290;28;20019;-78
2022/07/07 16:31:33;;;;;;;3.47;1.25;;;;;;;;;;4947969;28;20446;-87
2022/07/07 16:34:19;;;;;;;2.03;1.10;;;;;;;;;;4959677;28;20072;-78
2022/07/07 16:37:05;;;;;;;4.75;2.10;;;;;;;;;;4949618;28;20027;-76
2022/07/07 16:39:51;;;;;;;2.38;1.20;;;;;;;;;;4943377;28;20494;-75
2022/07/07 16:42:37;;;;;;;2.42;1.00;;;;;;;;;;4939698;28;20038;-76
2022/07/07 16:45:23;;;;;;;1.67;1.20;;;;;;;;;;4951066;28;20061;-76
2022/07/07 16:48:09;;;;;;;2.85;1.20;;;;;;;;;;4950106;28;20027;-74